Time;durP1;ratioP1;P1;durP2;ratioP2;P2;SDS_P1;SDS_P2;PMS_P1;PMS_P2;Temp;Humidity;BMP_temperature;BMP_pressure;BME280_temperature;BME280_humidity;BME280_pressure;Samples;Min_cycle;Max_cycle;Signal;HPM_P1;HPM_P2
2023/09/14 00:00:49;;;;;;;8.52;4.68;;;;;;;10.98;100.00;102193.72;6181175;23;20005;-70
2023/09/14 00:03:15;;;;;;;5.97;4.15;;;;;;;11.00;100.00;102199.84;6181940;23;20104;-70
2023/09/14 00:05:44;;;;;;;7.15;5.00;;;;;;;10.94;100.00;102202.41;6156687;23;20095;-70
2023/09/14 00:08:12;;;;;;;7.40;4.88;;;;;;;10.91;100.00;102200.63;6181765;23;20114;-70
2023/09/14 00:10:38;;;;;;;9.95;5.15;;;;;;;10.93;100.00;102201.50;6181004;23;20005;-70
2023/09/14 00:13:04;;;;;;;8.65;4.95;;;;;;;10.93;100.00;102201.50;6180928;23;21496;-70
2023/09/14 00:15:30;;;;;;;9.35;4.95;;;;;;;10.95;100.00;102210.28;6180732;23;20442;-70
2023/09/14 00:17:56;;;;;;;7.00;4.80;;;;;;;10.78;100.00;102204.91;6156305;23;20092;-66
2023/09/14 00:20:27;;;;;;;9.70;5.10;;;;;;;10.77;100.00;102204.88;6155683;23;20091;-66
2023/09/14 00:22:55;;;;;;;6.07;3.20;;;;;;;10.75;100.00;102203.13;6180298;23;20019;-66
2023/09/14 00:25:21;;;;;;;6.03;3.47;;;;;;;10.71;100.00;102203.94;6181965;23;20015;-66
2023/09/14 00:27:48;;;;;;;8.52;4.22;;;;;;;10.67;100.00;102211.78;6180117;23;20001;-66
2023/09/14 00:30:14;;;;;;;5.50;3.53;;;;;;;10.58;100.00;102205.56;6180380;23;20005;-70
2023/09/14 00:32:40;;;;;;;7.03;4.03;;;;;;;10.43;100.00;102201.91;6155683;23;20083;-70
2023/09/14 00:35:09;;;;;;;5.28;2.90;;;;;;;10.23;100.00;102199.94;6157255;23;20029;-70
2023/09/14 00:37:36;;;;;;;7.20;4.18;;;;;;;10.24;100.00;102201.66;6181418;23;20001;-70
2023/09/14 00:40:09;;;;;;;8.38;4.25;;;;;;;10.24;100.00;102199.06;6180515;23;20113;-70
2023/09/14 00:42:40;;;;;;;6.55;4.45;;;;;;;10.41;100.00;102196.66;6178513;23;20023;-66
2023/09/14 00:45:07;;;;;;;17.52;5.30;;;;;;;10.43;100.00;102200.19;6181223;23;20151;-66
2023/09/14 00:47:34;;;;;;;7.68;4.90;;;;;;;10.48;100.00;102202.84;6155990;23;20019;-66
2023/09/14 00:50:00;;;;;;;8.40;4.65;;;;;;;10.53;100.00;102198.53;6156787;23;20063;-66
2023/09/14 00:52:26;;;;;;;8.80;5.18;;;;;;;10.50;100.00;102207.25;6181157;23;20339;-66
2023/09/14 00:54:51;;;;;;;12.95;5.80;;;;;;;10.51;100.00;102208.13;6206162;23;20019;-67
2023/09/14 00:57:17;;;;;;;6.32;3.97;;;;;;;10.43;100.00;102207.16;6155513;23;20435;-66
2023/09/14 00:59:44;;;;;;;5.10;3.42;;;;;;;10.33;100.00;102209.66;6156691;23;20071;-66
2023/09/14 01:02:10;;;;;;;6.68;3.75;;;;;;;10.16;100.00;102205.97;6179975;23;20009;-66
2023/09/14 01:04:37;;;;;;;7.15;3.95;;;;;;;10.09;100.00;102198.91;6182934;23;20546;-66
2023/09/14 01:07:03;;;;;;;12.75;4.22;;;;;;;10.12;100.00;102201.56;6159693;23;20064;-66
2023/09/14 01:09:29;;;;;;;5.03;3.78;;;;;;;10.10;100.00;102208.50;6159367;23;20009;-66
2023/09/14 01:11:55;;;;;;;6.85;4.18;;;;;;;10.08;100.00;102198.00;6182525;23;20371;-66
2023/09/14 01:14:45;;;;;;;7.13;4.45;;;;;;;9.95;100.00;102202.19;6159915;23;20060;-66
2023/09/14 01:17:29;;;;;;;4.90;4.07;;;;;;;10.03;100.00;102200.56;6107746;23;20084;-66
2023/09/14 01:20:04;;;;;;;8.38;4.57;;;;;;;9.95;100.00;102201.34;6183685;23;20004;-66
2023/09/14 01:22:42;;;;;;;6.32;4.15;;;;;;;9.95;100.00;102202.19;6184970;23;20040;-66
2023/09/14 01:25:40;;;;;;;6.35;3.67;;;;;;;10.01;100.00;102209.25;6184063;23;20364;-66
2023/09/14 01:28:11;;;;;;;5.80;3.65;;;;;;;9.95;100.00;102207.44;6183927;23;20001;-66
2023/09/14 01:30:37;;;;;;;5.65;3.78;;;;;;;9.96;100.00;102205.72;6182725;23;20056;-66
2023/09/14 01:33:09;;;;;;;5.80;4.22;;;;;;;9.83;100.00;102204.69;6183584;23;20016;-67
2023/09/14 01:35:43;;;;;;;6.25;3.80;;;;;;;9.74;100.00;102207.16;6183294;23;20000;-66
2023/09/14 01:38:09;;;;;;;5.63;4.38;;;;;;;9.70;100.00;102208.88;6183139;23;20005;-66
2023/09/14 01:40:36;;;;;;;4.65;4.20;;;;;;;9.65;100.00;102203.56;6157587;23;20040;-66
2023/09/14 01:43:06;;;;;;;5.53;5.00;;;;;;;9.66;100.00;102207.94;6158826;23;20009;-66
2023/09/14 01:45:33;;;;;;;5.20;3.75;;;;;;;9.69;100.00;102204.50;6184219;23;20380;-66
2023/09/14 01:48:00;;;;;;;6.35;3.13;;;;;;;9.78;100.00;102206.34;6184012;23;20015;-66
2023/09/14 01:50:25;;;;;;;4.72;3.17;;;;;;;9.70;100.00;102207.13;6183505;23;20009;-66
2023/09/14 01:52:52;;;;;;;5.93;3.40;;;;;;;9.66;100.00;102200.09;6184466;23;20036;-66
2023/09/14 01:55:18;;;;;;;7.95;4.15;;;;;;;9.73;100.00;102206.28;6159180;23;20020;-66
2023/09/14 01:57:45;;;;;;;9.05;4.70;;;;;;;9.79;100.00;102200.25;6157839;23;20099;-66
2023/09/14 02:00:10;;;;;;;7.13;4.88;;;;;;;9.88;100.00;102205.59;6182812;23;20072;-66
2023/09/14 02:02:36;;;;;;;6.90;3.95;;;;;;;9.80;100.00;102207.25;6158198;23;20013;-66
2023/09/14 02:05:01;;;;;;;5.57;3.38;;;;;;;9.76;100.00;102201.09;6184774;23;20303;-66
2023/09/14 02:07:27;;;;;;;11.25;4.50;;;;;;;9.66;100.00;102204.44;6159321;23;20107;-67
2023/09/14 02:09:52;;;;;;;6.07;3.72;;;;;;;9.64;100.00;102211.38;6159713;23;20030;-70
2023/09/14 02:12:18;;;;;;;5.90;3.47;;;;;;;9.56;100.00;102206.06;6157573;23;20044;-70
2023/09/14 02:14:43;;;;;;;8.35;4.80;;;;;;;9.55;100.00;102206.91;6159738;23;20017;-70
2023/09/14 02:17:08;;;;;;;6.60;3.50;;;;;;;9.49;100.00;102197.22;6182169;23;20097;-70
2023/09/14 02:19:34;;;;;;;3.17;2.80;;;;;;;9.52;100.00;102196.41;6158823;23;20419;-70
2023/09/14 02:21:59;;;;;;;5.60;3.10;;;;;;;9.40;100.00;102198.84;6156616;23;20071;-70
2023/09/14 02:24:25;;;;;;;7.82;2.38;;;;;;;9.24;100.00;102193.38;6208359;23;20316;-70
2023/09/14 02:26:54;;;;;;;5.35;2.60;;;;;;;9.29;100.00;102194.31;6156624;23;20013;-70
2023/09/14 02:29:19;;;;;;;7.00;3.08;;;;;;;9.40;100.00;102191.88;6158368;23;20466;-70
2023/09/14 02:31:45;;;;;;;3.60;3.20;;;;;;;9.34;100.00;102182.19;6157389;23;20015;-70
2023/09/14 02:34:10;;;;;;;3.47;2.70;;;;;;;9.36;100.00;102190.06;6157313;23;20009;-70
2023/09/14 02:36:35;;;;;;;5.75;2.80;;;;;;;9.35;100.00;102189.19;6183035;23;20392;-70
2023/09/14 02:39:01;;;;;;;10.18;3.17;;;;;;;9.26;100.00;102188.16;6158435;23;20005;-70
2023/09/14 02:41:26;;;;;;;7.28;4.00;;;;;;;9.26;100.00;102193.41;6157657;23;20087;-70
2023/09/14 02:43:52;;;;;;;7.03;3.20;;;;;;;9.25;100.00;102186.41;6157947;23;20019;-70
2023/09/14 02:46:17;;;;;;;37.05;6.03;;;;;;;9.17;100.00;102186.28;6156631;23;20013;-70
2023/09/14 02:48:43;;;;;;;4.90;2.88;;;;;;;9.19;100.00;102187.19;6182234;23;20029;-70
2023/09/14 02:51:08;;;;;;;7.32;3.78;;;;;;;9.16;100.00;102181.91;6156688;23;20732;-70
2023/09/14 02:53:33;;;;;;;5.78;3.55;;;;;;;9.20;100.00;102181.09;6156499;23;20435;-70
2023/09/14 02:55:59;;;;;;;5.65;3.13;;;;;;;9.15;100.00;102180.13;6183809;23;20009;-70
2023/09/14 02:58:24;;;;;;;16.48;3.85;;;;;;;9.07;100.00;102180.03;6158023;23;20439;-70
2023/09/14 03:00:50;;;;;;;7.13;3.90;;;;;;;9.09;100.00;102177.44;6181919;23;20483;-70
2023/09/14 03:03:15;;;;;;;10.15;4.93;;;;;;;9.01;100.00;102185.16;6156035;23;20474;-70
2023/09/14 03:05:41;;;;;;;11.95;5.13;;;;;;;9.05;100.00;102181.75;6157422;23;20051;-70
2023/09/14 03:08:06;;;;;;;6.72;3.80;;;;;;;8.99;100.00;102179.91;6157465;23;20013;-70
2023/09/14 03:10:31;;;;;;;8.02;4.60;;;;;;;9.01;100.00;102182.56;6181427;23;20713;-70
2023/09/14 03:12:57;;;;;;;6.05;3.97;;;;;;;8.97;100.00;102179.00;6156483;23;20024;-70
2023/09/14 03:15:22;;;;;;;8.35;3.92;;;;;;;8.94;100.00;102172.84;6182645;23;20020;-70
2023/09/14 03:17:48;;;;;;;16.30;3.75;;;;;;;8.91;100.00;102178.03;6156976;23;20028;-70
2023/09/14 03:20:13;;;;;;;10.23;3.33;;;;;;;8.85;100.00;102178.81;6157105;23;20364;-70
2023/09/14 03:22:39;;;;;;;9.57;4.35;;;;;;;8.87;100.00;102179.69;6156961;23;20017;-70
2023/09/14 03:25:05;;;;;;;6.05;3.92;;;;;;;8.78;100.00;102183.03;6207239;23;20005;-70
2023/09/14 03:27:30;;;;;;;5.10;3.47;;;;;;;8.77;100.00;102177.78;6155675;23;20019;-70
2023/09/14 03:29:56;;;;;;;5.43;3.60;;;;;;;8.73;100.00;102184.69;6156384;23;20033;-70
2023/09/14 03:32:21;;;;;;;4.22;3.35;;;;;;;8.80;100.00;102189.16;6180904;23;20158;-70
2023/09/14 03:34:47;;;;;;;6.55;3.53;;;;;;;8.79;100.00;102187.44;6157520;23;20388;-70
2023/09/14 03:37:12;;;;;;;6.53;4.03;;;;;;;8.76;100.00;102186.47;6155192;23;20017;-70
2023/09/14 03:39:38;;;;;;;6.07;4.03;;;;;;;8.74;100.00;102185.59;6180978;23;20312;-70
2023/09/14 03:42:04;;;;;;;6.40;3.67;;;;;;;8.69;100.00;102187.22;6178853;23;20096;-70
2023/09/14 03:44:29;;;;;;;6.93;3.40;;;;;;;8.74;100.00;102188.19;6156633;23;20055;-70
2023/09/14 03:46:55;;;;;;;20.45;4.93;;;;;;;8.66;100.00;102188.03;6157023;23;20096;-71
2023/09/14 03:49:21;;;;;;;8.10;2.95;;;;;;;8.69;100.00;102184.63;6155670;23;20009;-71
2023/09/14 03:51:46;;;;;;;4.57;2.55;;;;;;;8.69;100.00;102185.47;6157239;23;20115;-71
2023/09/14 03:54:13;;;;;;;4.50;2.28;;;;;;;8.68;100.00;102183.75;6180844;23;20009;-71
2023/09/14 03:56:39;;;;;;;3.90;2.03;;;;;;;8.66;100.00;102186.34;6156511;23;20017;-71
2023/09/14 03:59:04;;;;;;;5.90;3.10;;;;;;;8.66;100.00;102183.72;6156785;23;20009;-71
2023/09/14 04:01:30;;;;;;;4.20;2.20;;;;;;;8.71;100.00;102178.56;6181593;23;20428;-70
2023/09/14 04:03:55;;;;;;;2.25;2.00;;;;;;;8.57;100.00;102186.16;6155861;23;20060;-70
2023/09/14 04:06:21;;;;;;;5.93;2.88;;;;;;;8.46;100.00;102182.47;6155469;23;20343;-70
2023/09/14 04:08:47;;;;;;;22.85;3.25;;;;;;;8.47;100.00;102184.22;6156281;23;20001;-70
2023/09/14 04:11:12;;;;;;;5.60;2.20;;;;;;;8.51;100.00;102180.81;6181536;23;20009;-70
2023/09/14 04:13:39;;;;;;;4.30;2.20;;;;;;;8.53;100.00;102179.09;6181270;23;20111;-70
2023/09/14 04:16:05;;;;;;;5.72;2.20;;;;;;;8.54;100.00;102180.00;6180701;23;20016;-70
2023/09/14 04:18:38;;;;;;;4.75;2.25;;;;;;;8.48;100.00;102180.78;6179649;23;20004;-70
2023/09/14 04:21:04;;;;;;;3.47;2.20;;;;;;;8.53;100.00;102184.31;6157022;23;20120;-71
2023/09/14 04:23:30;;;;;;;4.82;2.58;;;;;;;8.51;100.00;102177.34;6156079;23;20079;-71
2023/09/14 04:25:55;;;;;;;6.85;2.38;;;;;;;8.32;100.00;102170.00;6155325;23;20044;-71
2023/09/14 04:28:23;;;;;;;3.40;2.15;;;;;;;8.51;100.00;102179.94;6155636;23;20371;-71
2023/09/14 04:30:51;;;;;;;5.25;2.60;;;;;;;8.39;100.00;102189.28;6156207;23;20320;-71
2023/09/14 04:33:17;;;;;;;5.20;3.10;;;;;;;8.33;100.00;102187.44;6180624;23;20013;-71
2023/09/14 04:35:43;;;;;;;4.78;2.60;;;;;;;8.23;100.00;102188.13;6181778;23;20050;-71
2023/09/14 04:38:09;;;;;;;5.68;2.80;;;;;;;8.24;100.00;102192.47;6181247;23;20088;-71
2023/09/14 04:40:39;;;;;;;5.57;3.20;;;;;;;8.27;100.00;102178.59;6180430;23;20043;-71
2023/09/14 04:43:05;;;;;;;3.85;1.83;;;;;;;8.29;100.00;102183.00;6180654;23;20009;-71
2023/09/14 04:45:31;;;;;;;7.50;2.90;;;;;;;8.31;100.00;102189.13;6180285;23;20013;-71
2023/09/14 04:47:58;;;;;;;6.50;3.10;;;;;;;8.27;100.00;102187.28;6181080;23;20001;-71
2023/09/14 04:50:24;;;;;;;5.55;3.35;;;;;;;8.23;100.00;102195.03;6156045;23;20080;-71
2023/09/14 04:52:49;;;;;;;6.18;3.40;;;;;;;8.24;100.00;102191.59;6180870;23;20021;-70
2023/09/14 04:55:15;;;;;;;6.88;3.67;;;;;;;8.25;100.00;102190.75;6181521;23;20005;-70
2023/09/14 04:57:40;;;;;;;7.07;3.80;;;;;;;8.27;100.00;102191.66;6156309;23;20013;-70
2023/09/14 05:00:09;;;;;;;10.50;3.63;;;;;;;8.35;100.00;102191.78;6182152;23;20009;-70
2023/09/14 05:02:35;;;;;;;3.33;2.50;;;;;;;8.06;100.00;102202.53;6156901;23;20028;-71
2023/09/14 05:05:01;;;;;;;3.83;2.97;;;;;;;8.16;100.00;102201.91;6157205;23;20009;-71
2023/09/14 05:07:26;;;;;;;7.93;4.18;;;;;;;8.07;100.00;102199.09;6156936;23;20075;-71
2023/09/14 05:09:52;;;;;;;4.35;2.83;;;;;;;8.15;100.00;102197.53;6157263;23;20100;-71
2023/09/14 05:12:17;;;;;;;5.22;2.65;;;;;;;8.17;100.00;102192.31;6155909;23;20091;-71
2023/09/14 05:14:43;;;;;;;4.55;2.63;;;;;;;8.18;100.00;102197.56;6181798;23;20450;-71
2023/09/14 05:17:08;;;;;;;8.60;3.15;;;;;;;8.24;100.00;102195.06;6156696;23;20019;-71
2023/09/14 05:19:33;;;;;;;6.03;4.00;;;;;;;8.26;100.00;102201.22;6154788;23;20092;-71
2023/09/14 05:21:59;;;;;;;10.13;3.85;;;;;;;8.40;100.00;102195.38;6181777;23;20451;-71
2023/09/14 05:24:24;;;;;;;4.32;1.73;;;;;;;8.29;100.00;102198.66;6181095;23;20013;-71
2023/09/14 05:26:51;;;;;;;6.50;2.85;;;;;;;8.38;100.00;102211.03;6131585;23;20025;-71
2023/09/14 05:29:16;;;;;;;6.38;2.90;;;;;;;8.40;100.00;102214.53;6157014;23;20019;-70
2023/09/14 05:31:42;;;;;;;7.80;2.90;;;;;;;8.41;100.00;102210.22;6206547;23;20084;-71
2023/09/14 05:34:07;;;;;;;3.80;2.70;;;;;;;8.45;100.00;102209.47;6156152;23;20092;-71
2023/09/14 05:36:33;;;;;;;8.15;3.28;;;;;;;8.47;100.00;102218.19;6181782;23;20491;-71
2023/09/14 05:38:58;;;;;;;6.75;2.60;;;;;;;8.52;100.00;102211.34;6181740;23;20067;-71
2023/09/14 05:41:23;;;;;;;6.00;3.55;;;;;;;8.56;100.00;102213.16;6131195;23;20404;-71
2023/09/14 05:43:49;;;;;;;8.07;3.47;;;;;;;8.57;100.00;102222.72;6157090;23;20008;-71
2023/09/14 05:46:14;;;;;;;5.78;3.30;;;;;;;8.75;100.00;102218.69;6155538;23;20452;-71
2023/09/14 05:48:40;;;;;;;5.30;3.10;;;;;;;9.01;100.00;102225.25;6156220;23;20024;-71
2023/09/14 05:51:05;;;;;;;6.15;3.28;;;;;;;9.15;100.00;102221.97;6157183;23;20013;-71
2023/09/14 05:53:31;;;;;;;4.63;2.65;;;;;;;9.28;100.00;102218.72;6158112;23;20012;-71
2023/09/14 05:55:56;;;;;;;6.05;2.65;;;;;;;9.36;100.00;102226.69;6182715;23;20016;-71
2023/09/14 05:58:22;;;;;;;4.93;3.38;;;;;;;9.48;100.00;102221.66;6132527;23;20013;-67
2023/09/14 06:00:47;;;;;;;8.05;4.57;;;;;;;9.68;100.00;102223.66;6156108;23;20041;-67
2023/09/14 06:03:13;;;;;;;5.53;3.85;;;;;;;9.83;100.00;102223.00;6180242;23;20323;-67
2023/09/14 06:05:39;;;;;;;8.43;4.90;;;;;;;10.08;100.00;102229.44;6155871;23;20005;-66
2023/09/14 06:08:05;;;;;;;8.30;4.90;;;;;;;10.79;100.00;102221.50;6155672;23;20019;-66
2023/09/14 06:10:30;;;;;;;9.60;4.38;;;;;;;11.98;100.00;102225.00;6180782;23;20016;-66
2023/09/14 06:12:56;;;;;;;9.00;4.25;;;;;;;13.74;100.00;102220.78;6182213;23;20012;-66
2023/09/14 06:15:23;;;;;;;7.35;3.67;;;;;;;14.80;93.54;102223.81;6182176;23;20009;-66
2023/09/14 06:17:49;;;;;;;7.57;3.88;;;;;;;16.24;89.11;102231.19;6182129;23;20088;-66
2023/09/14 06:20:15;;;;;;;7.35;3.67;;;;;;;16.74;83.21;102234.88;6157913;23;20375;-67
2023/09/14 06:22:40;;;;;;;7.00;3.92;;;;;;;18.22;77.66;102234.00;6182043;23;20017;-67
2023/09/14 06:25:06;;;;;;;7.43;3.78;;;;;;;17.99;72.37;102235.34;6155677;23;20477;-66
2023/09/14 06:27:31;;;;;;;5.85;3.83;;;;;;;18.25;70.65;102231.25;6155553;23;20012;-66
2023/09/14 06:29:57;;;;;;;7.53;3.60;;;;;;;19.44;69.99;102243.47;6207507;23;20005;-66
2023/09/14 06:32:22;;;;;;;8.48;3.30;;;;;;;20.46;66.75;102246.81;6156091;23;20013;-67
2023/09/14 06:34:48;;;;;;;6.72;3.10;;;;;;;20.11;64.12;102245.22;6180994;23;20009;-67
2023/09/14 06:37:13;;;;;;;4.95;3.20;;;;;;;21.21;64.00;102234.66;6157592;23;20008;-67
2023/09/14 06:39:39;;;;;;;7.72;3.38;;;;;;;20.94;61.56;102240.84;6156842;23;20088;-67
2023/09/14 06:42:04;;;;;;;6.95;2.97;;;;;;;21.11;59.42;102248.28;6156576;23;20017;-67
2023/09/14 06:44:32;;;;;;;7.82;3.17;;;;;;;20.69;60.84;102246.13;6156643;23;20148;-67
2023/09/14 06:46:58;;;;;;;8.80;3.03;;;;;;;20.67;59.81;102239.94;6182142;23;20311;-66
2023/09/14 06:49:23;;;;;;;9.60;3.60;;;;;;;21.16;60.54;102241.91;6156728;23;20017;-67
2023/09/14 06:51:48;;;;;;;10.38;3.58;;;;;;;21.09;59.01;102244.81;6158174;23;20067;-67
2023/09/14 06:54:14;;;;;;;7.40;3.70;;;;;;;21.17;58.86;102238.34;6181908;23;20009;-68
2023/09/14 06:56:39;;;;;;;7.05;3.53;;;;;;;21.59;58.77;102237.78;6156085;23;20406;-67
2023/09/14 06:59:05;;;;;;;7.30;3.28;;;;;;;21.87;56.94;102237.66;6182364;23;20427;-67
2023/09/14 07:01:31;;;;;;;7.13;3.55;;;;;;;21.70;58.73;102240.94;6180320;23;20020;-67
2023/09/14 07:03:56;;;;;;;7.60;3.50;;;;;;;22.08;56.88;102248.44;6156243;23;20013;-67
2023/09/14 07:06:22;;;;;;;5.88;3.78;;;;;;;21.80;58.18;102245.00;6156545;23;20016;-68
2023/09/14 07:08:48;;;;;;;5.88;3.50;;;;;;;22.27;56.04;102253.97;6182011;23;20095;-67
2023/09/14 07:11:14;;;;;;;7.03;3.67;;;;;;;23.05;54.95;102249.94;6181292;23;20397;-67
2023/09/14 07:13:40;;;;;;;7.93;4.00;;;;;;;23.49;53.53;102254.38;6157490;23;20032;-67
2023/09/14 07:16:06;;;;;;;6.22;3.78;;;;;;;23.57;52.04;102254.03;6132677;23;20009;-67
2023/09/14 07:18:33;;;;;;;7.43;4.30;;;;;;;23.84;53.81;102247.41;6156275;23;20033;-67
2023/09/14 07:21:01;;;;;;;7.53;4.15;;;;;;;23.01;56.17;102245.66;6156756;23;20025;-67
2023/09/14 07:23:27;;;;;;;8.85;4.90;;;;;;;22.57;57.05;102245.69;6180608;23;20048;-67
2023/09/14 07:25:56;;;;;;;8.07;4.30;;;;;;;22.11;58.70;102245.66;6156882;23;20013;-67
2023/09/14 07:28:21;;;;;;;15.30;4.63;;;;;;;21.27;61.71;102245.09;6182458;23;20008;-67
2023/09/14 07:30:49;;;;;;;9.02;4.82;;;;;;;21.11;62.88;102252.75;6181493;23;20380;-67
2023/09/14 07:33:16;;;;;;;8.40;4.72;;;;;;;21.08;67.71;102239.53;6183993;23;20060;-67
2023/09/14 07:35:42;;;;;;;9.45;4.78;;;;;;;21.05;64.15;102250.28;6182324;23;20005;-67
2023/09/14 07:38:09;;;;;;;8.98;4.65;;;;;;;20.79;63.01;102252.03;6156503;23;20009;-67
2023/09/14 07:40:35;;;;;;;8.73;4.70;;;;;;;20.60;64.80;102259.66;6179889;23;20016;-66
2023/09/14 07:43:01;;;;;;;9.85;4.95;;;;;;;20.20;67.55;102258.22;6156971;23;20112;-69
2023/09/14 07:45:29;;;;;;;9.32;4.55;;;;;;;19.90;69.37;102260.88;6156562;23;20009;-70
2023/09/14 07:47:55;;;;;;;10.60;5.00;;;;;;;19.70;69.03;102261.41;6181424;23;20029;-69
2023/09/14 07:50:20;;;;;;;7.10;4.80;;;;;;;19.44;70.07;102255.00;6181220;23;20012;-69
2023/09/14 07:52:46;;;;;;;8.57;5.32;;;;;;;19.42;70.67;102258.63;6156656;23;20017;-69
2023/09/14 07:55:11;;;;;;;8.05;5.13;;;;;;;18.84;74.18;102262.66;6156552;23;20013;-69
2023/09/14 07:57:36;;;;;;;10.48;5.90;;;;;;;18.47;76.06;102259.97;6179733;23;20055;-69
2023/09/14 08:00:02;;;;;;;7.82;5.45;;;;;;;17.98;77.31;102264.56;6155295;23;20009;-69
2023/09/14 08:02:28;;;;;;;11.93;5.97;;;;;;;17.82;78.19;102267.47;6155240;23;20328;-69
2023/09/14 08:04:53;;;;;;;8.95;6.05;;;;;;;17.69;78.69;102268.63;6153609;23;20023;-69
2023/09/14 08:07:18;;;;;;;10.85;6.40;;;;;;;17.48;80.25;102269.88;6180346;23;20104;-69
2023/09/14 08:09:45;;;;;;;9.80;6.53;;;;;;;17.41;81.23;102266.47;6180471;23;20088;-69
2023/09/14 08:12:10;;;;;;;11.65;6.88;;;;;;;17.40;83.48;102269.16;6156227;23;20032;-69
2023/09/14 08:14:36;;;;;;;12.52;6.57;;;;;;;17.28;81.74;102257.88;6180831;23;20516;-69
2023/09/14 08:17:01;;;;;;;11.27;6.65;;;;;;;17.47;82.42;102257.53;6179905;23;20027;-69
2023/09/14 08:19:29;;;;;;;13.25;6.75;;;;;;;17.54;83.23;102256.53;6180934;23;20040;-69
2023/09/14 08:21:54;;;;;;;11.25;7.35;;;;;;;17.67;83.94;102258.03;6156274;23;20029;-69
2023/09/14 08:24:20;;;;;;;14.35;7.55;;;;;;;17.81;82.58;102254.25;6156415;23;20320;-69
2023/09/14 08:26:46;;;;;;;10.80;7.80;;;;;;;17.43;82.79;102258.50;6151669;23;20092;-69
2023/09/14 08:29:12;;;;;;;11.38;7.53;;;;;;;17.59;82.41;102257.31;6156887;23;20439;-69
2023/09/14 08:31:37;;;;;;;13.70;7.40;;;;;;;17.77;82.72;102258.75;6156718;23;20076;-69
2023/09/14 08:34:03;;;;;;;15.75;7.70;;;;;;;17.96;82.37;102258.41;6155698;23;20033;-69
2023/09/14 08:36:28;;;;;;;12.30;7.60;;;;;;;18.02;80.35;102257.41;6156816;23;20005;-69
2023/09/14 08:38:54;;;;;;;13.25;7.70;;;;;;;18.38;80.47;102260.19;6156873;23;20395;-69
2023/09/14 08:41:43;;;;;;;12.73;7.35;;;;;;;18.31;80.39;102267.41;6156306;23;20012;-69
2023/09/14 08:44:08;;;;;;;14.05;8.43;;;;;;;18.17;79.72;102271.25;6180869;23;20062;-69
2023/09/14 08:46:35;;;;;;;10.95;7.88;;;;;;;18.13;80.11;102266.91;6179236;23;20009;-69
2023/09/14 08:49:02;;;;;;;14.98;8.73;;;;;;;18.37;80.59;102272.56;6156126;23;20092;-69
2023/09/14 08:51:33;;;;;;;13.95;9.02;;;;;;;18.43;79.15;102272.47;6180321;23;20093;-69
2023/09/14 08:53:59;;;;;;;13.98;8.95;;;;;;;18.28;79.12;102268.34;6181495;23;20096;-69
2023/09/14 08:56:26;;;;;;;11.85;8.60;;;;;;;18.32;79.68;102269.16;6159307;23;20015;-69
2023/09/14 08:58:53;;;;;;;12.32;8.80;;;;;;;18.35;78.96;102272.59;6180502;23;20092;-69
2023/09/14 09:01:19;;;;;;;12.77;8.95;;;;;;;18.35;79.59;102259.34;6180485;23;20009;-68
2023/09/14 09:03:44;;;;;;;11.18;9.10;;;;;;;18.59;80.31;102254.41;6155372;23;20458;-69
2023/09/14 09:06:11;;;;;;;12.80;9.55;;;;;;;18.44;79.33;102265.38;6180927;23;20374;-69
2023/09/14 09:08:37;;;;;;;18.05;10.73;;;;;;;18.51;79.21;102259.88;6181088;23;20428;-69
2023/09/14 09:11:03;;;;;;;13.20;9.70;;;;;;;18.64;78.81;102256.94;6155718;23;20009;-68
2023/09/14 09:13:40;;;;;;;13.93;10.60;;;;;;;18.95;78.14;102257.13;6156648;23;20009;-69
2023/09/14 09:16:05;;;;;;;13.27;10.82;;;;;;;18.74;75.56;102257.63;6181145;23;20347;-69
2023/09/14 09:18:31;;;;;;;17.13;10.80;;;;;;;18.59;78.10;102254.41;6155438;23;20032;-69
2023/09/14 09:20:57;;;;;;;14.45;10.40;;;;;;;18.67;79.12;102252.44;6155152;23;20017;-69
2023/09/14 09:23:25;;;;;;;14.82;11.10;;;;;;;18.76;79.11;102255.78;6181546;23;20167;-68
2023/09/14 09:25:54;;;;;;;15.32;11.57;;;;;;;18.70;76.82;102251.50;6155857;23;20862;-69
2023/09/14 09:28:29;;;;;;;13.30;10.87;;;;;;;18.76;77.79;102250.47;6132461;23;20016;-68
2023/09/14 09:30:55;;;;;;;13.45;11.57;;;;;;;18.77;76.69;102252.22;6182047;23;20008;-68
2023/09/14 09:33:35;;;;;;;16.13;10.00;;;;;;;18.99;76.61;102252.59;6157792;23;20048;-68
2023/09/14 09:36:14;;;;;;;14.38;9.88;;;;;;;19.08;77.18;102247.06;6182635;23;20359;-69
2023/09/14 09:38:40;;;;;;;13.10;10.93;;;;;;;19.00;75.26;102249.91;6180699;23;20005;-68
2023/09/14 09:41:12;;;;;;;13.68;9.85;;;;;;;18.95;70.07;102248.28;6157927;23;20071;-68
2023/09/14 09:43:40;;;;;;;15.00;10.82;;;;;;;18.91;70.45;102247.50;6158734;23;20045;-69
2023/09/14 09:46:18;;;;;;;14.10;9.82;;;;;;;19.13;72.63;102246.94;6183132;23;20095;-68
2023/09/14 09:48:44;;;;;;;15.32;11.25;;;;;;;19.12;72.72;102242.53;6182081;23;20036;-68
2023/09/14 09:51:09;;;;;;;13.10;9.50;;;;;;;19.24;71.94;102238.69;6182188;23;20436;-68
2023/09/14 09:53:38;;;;;;;17.20;11.07;;;;;;;19.10;69.71;102242.59;6182839;23;20394;-68
2023/09/14 09:56:04;;;;;;;14.15;10.30;;;;;;;19.20;73.80;102237.91;6184200;23;20012;-68
2023/09/14 09:58:37;;;;;;;12.15;10.23;;;;;;;19.07;69.37;102239.16;6157953;23;20343;-68
2023/09/14 10:01:03;;;;;;;14.93;11.32;;;;;;;19.17;71.23;102235.34;6182998;23;20384;-68
2023/09/14 10:03:30;;;;;;;13.60;10.10;;;;;;;19.17;70.21;102233.53;6182619;23;20048;-69
2023/09/14 10:05:56;;;;;;;14.40;10.48;;;;;;;19.24;69.73;102236.03;6157975;23;20044;-68
2023/09/14 10:08:22;;;;;;;13.85;10.63;;;;;;;18.91;68.54;102236.88;6183548;23;20001;-68
2023/09/14 10:10:53;;;;;;;12.63;10.55;;;;;;;18.71;69.84;102242.63;6181229;23;20005;-68
2023/09/14 10:13:22;;;;;;;12.05;10.18;;;;;;;18.50;72.23;102238.66;6183698;23;20005;-68
2023/09/14 10:15:50;;;;;;;11.95;10.07;;;;;;;18.58;71.94;102225.25;6182732;23;20012;-68
2023/09/14 10:18:17;;;;;;;15.32;10.75;;;;;;;18.72;71.91;102224.91;6182880;23;20016;-68
2023/09/14 10:20:44;;;;;;;13.23;9.68;;;;;;;18.87;71.29;102235.19;6157559;23;20443;-68
2023/09/14 10:23:11;;;;;;;10.38;8.90;;;;;;;19.10;70.33;102228.44;6182814;23;20351;-68
2023/09/14 10:25:37;;;;;;;11.13;8.85;;;;;;;19.27;69.05;102220.91;6182318;23;20068;-68
2023/09/14 10:28:09;;;;;;;9.85;6.35;;;;;;;19.41;63.79;102231.19;6158622;23;20427;-68
2023/09/14 10:30:36;;;;;;;8.98;6.40;;;;;;;19.31;62.07;102227.88;6184628;23;20016;-69
2023/09/14 10:33:03;;;;;;;8.13;5.43;;;;;;;19.53;63.64;102232.63;6183003;23;20020;-68
2023/09/14 10:35:30;;;;;;;7.95;6.10;;;;;;;19.54;64.62;102234.38;6183073;23;20359;-68
2023/09/14 10:37:59;;;;;;;12.35;8.38;;;;;;;19.35;64.89;102231.31;6157728;23;20013;-68
2023/09/14 10:40:27;;;;;;;12.45;8.85;;;;;;;19.29;66.83;102227.03;6183495;23;20032;-68
2023/09/14 10:42:53;;;;;;;11.25;8.57;;;;;;;19.21;66.43;102215.75;6182554;23;20021;-68
2023/09/14 10:45:19;;;;;;;11.65;8.15;;;;;;;19.26;65.39;102223.59;6158453;23;20487;-68
2023/09/14 10:47:50;;;;;;;9.80;7.35;;;;;;;19.33;64.20;102217.22;6157429;23;20005;-69
2023/09/14 10:50:19;;;;;;;10.55;7.28;;;;;;;19.42;63.69;102208.97;6183341;23;20086;-68
2023/09/14 10:52:45;;;;;;;9.40;6.75;;;;;;;19.70;65.41;102214.41;6157984;23;20024;-68
2023/09/14 10:55:12;;;;;;;9.70;6.32;;;;;;;19.65;61.76;102211.03;6183142;23;20016;-68
2023/09/14 10:57:43;;;;;;;10.30;6.95;;;;;;;19.40;63.73;102210.81;6182012;23;20037;-69
2023/09/14 11:00:33;;;;;;;9.02;6.68;;;;;;;19.54;66.98;102213.09;6183017;23;20454;-68
2023/09/14 11:02:59;;;;;;;14.95;8.05;;;;;;;19.15;64.58;102203.50;6182107;23;20009;-68
2023/09/14 11:05:39;;;;;;;10.15;7.07;;;;;;;19.07;65.30;102196.63;6158366;23;20195;-68
2023/09/14 11:08:04;;;;;;;10.52;7.38;;;;;;;19.18;66.27;102197.25;6182655;23;20009;-68
2023/09/14 11:10:31;;;;;;;10.60;7.22;;;;;;;19.40;65.97;102205.50;6157195;23;20013;-68
2023/09/14 11:13:21;;;;;;;9.63;7.25;;;;;;;19.63;65.04;102202.19;6184177;23;20331;-68
2023/09/14 11:15:53;;;;;;;10.27;6.38;;;;;;;19.82;63.26;102199.03;6167240;23;20019;-68
2023/09/14 11:18:20;;;;;;;9.70;7.50;;;;;;;20.14;62.74;102191.88;6182472;23;20016;-68
2023/09/14 11:20:46;;;;;;;13.35;6.88;;;;;;;20.21;63.42;102196.09;6183098;23;20012;-68